Time;durP1;ratioP1;P1;durP2;ratioP2;P2;SDS_P1;SDS_P2;PMS_P1;PMS_P2;Temp;Humidity;BMP_temperature;BMP_pressure;BME280_temperature;BME280_humidity;BME280_pressure;Samples;Min_cycle;Max_cycle;Signal;HPM_P1;HPM_P2
2022/03/25 00:02:14;;;;;;;8.57;5.70;;;;;;;10.79;30.08;63113.41;5052405;28;20268;-79
2022/03/25 00:04:41;;;;;;;10.07;6.18;;;;;;;10.82;29.69;63116.50;5051567;28;20197;-79
2022/03/25 00:07:09;;;;;;;12.32;6.10;;;;;;;10.82;29.89;63113.47;5051593;28;20273;-78
2022/03/25 00:09:36;;;;;;;12.52;5.30;;;;;;;10.82;29.95;63116.00;5053707;28;20202;-78
2022/03/25 00:12:04;;;;;;;6.78;5.03;;;;;;;10.87;29.66;63116.09;5055597;28;20222;-79
2022/03/25 00:14:31;;;;;;;8.77;5.63;;;;;;;10.94;29.16;63123.84;5051846;28;20218;-79
2022/03/25 00:16:58;;;;;;;6.53;5.47;;;;;;;11.02;29.49;63134.16;5052386;28;20241;-79
2022/03/25 00:19:25;;;;;;;6.60;4.75;;;;;;;11.05;29.40;63140.34;5049452;28;20195;-81
2022/03/25 00:21:51;;;;;;;7.85;4.88;;;;;;;11.03;29.75;63135.19;5035666;28;20214;-79
2022/03/25 00:24:20;;;;;;;6.50;5.00;;;;;;;10.95;29.70;63126.91;5056198;28;20273;-79
2022/03/25 00:26:47;;;;;;;12.18;5.30;;;;;;;10.94;29.75;63130.97;5047222;28;20194;-79
2022/03/25 00:29:15;;;;;;;9.05;5.10;;;;;;;10.96;29.60;63122.88;5042661;28;20221;-79
2022/03/25 00:31:41;;;;;;;7.00;5.25;;;;;;;10.98;29.77;63135.63;5055676;28;20229;-78
2022/03/25 00:34:09;;;;;;;7.38;5.28;;;;;;;10.91;29.87;63123.28;5054823;28;20209;-79
2022/03/25 00:36:36;;;;;;;9.85;5.53;;;;;;;10.86;29.63;63115.56;5055963;28;20221;-79
2022/03/25 00:39:03;;;;;;;8.93;5.38;;;;;;;10.92;29.62;63126.34;5056148;28;20213;-79
2022/03/25 00:41:32;;;;;;;7.85;5.38;;;;;;;10.95;29.50;63127.44;5057019;28;20556;-79
2022/03/25 00:43:59;;;;;;;6.72;5.47;;;;;;;10.96;29.54;63127.97;5058772;28;20209;-80
2022/03/25 00:46:27;;;;;;;16.50;5.68;;;;;;;10.92;29.22;63126.88;5058253;28;20198;-79
2022/03/25 00:48:55;;;;;;;11.38;5.97;;;;;;;11.01;29.24;63136.19;5058674;28;20210;-79
2022/03/25 00:51:22;;;;;;;6.68;5.03;;;;;;;11.03;29.07;63133.16;5058040;28;20223;-80
2022/03/25 00:53:49;;;;;;;6.05;4.72;;;;;;;10.98;29.18;63130.00;5057314;28;20210;-79
2022/03/25 00:56:16;;;;;;;7.97;5.57;;;;;;;11.06;29.12;63138.31;5056246;28;20244;-80
2022/03/25 00:58:45;;;;;;;8.50;5.40;;;;;;;11.11;29.12;63143.47;5055197;28;20244;-80
2022/03/25 01:01:12;;;;;;;8.52;5.40;;;;;;;11.00;29.29;63134.63;5055171;28;20542;-79
2022/03/25 01:03:39;;;;;;;7.30;5.35;;;;;;;10.99;29.21;63134.09;5054761;28;20213;-79
2022/03/25 01:06:05;;;;;;;7.43;4.95;;;;;;;11.01;29.29;63130.59;5054381;28;20198;-80
2022/03/25 01:08:33;;;;;;;6.35;5.45;;;;;;;11.01;29.17;63133.63;5053721;28;20224;-81
2022/03/25 01:11:00;;;;;;;14.13;6.07;;;;;;;11.09;29.04;63141.94;5051686;28;20289;-82
2022/03/25 01:13:32;;;;;;;6.40;4.88;;;;;;;11.03;29.09;63135.19;5051620;28;20224;-79
2022/03/25 01:16:01;;;;;;;7.88;5.22;;;;;;;11.03;29.09;63140.28;5052779;28;20543;-80
2022/03/25 01:18:28;;;;;;;6.97;4.95;;;;;;;10.96;28.92;63128.47;5054323;28;20230;-79
2022/03/25 01:20:55;;;;;;;5.70;5.20;;;;;;;10.92;29.25;63126.88;5054656;28;20206;-79
2022/03/25 01:23:22;;;;;;;5.90;5.30;;;;;;;10.85;29.40;63117.09;5054278;28;20232;-80
2022/03/25 01:25:50;;;;;;;6.68;5.53;;;;;;;10.88;29.17;63124.75;5051625;28;20194;-79
2022/03/25 01:28:17;;;;;;;6.38;5.38;;;;;;;10.96;29.35;63122.88;5031175;28;20265;-79
2022/03/25 01:30:44;;;;;;;9.77;5.10;;;;;;;10.89;29.46;63118.16;5049375;28;20526;-78
2022/03/25 01:33:12;;;;;;;8.80;5.88;;;;;;;10.74;29.75;63107.72;5048832;28;20245;-79
2022/03/25 01:35:40;;;;;;;7.50;4.60;;;;;;;10.81;29.68;63112.94;5050185;28;20508;-78
2022/03/25 01:38:06;;;;;;;8.65;5.70;;;;;;;10.76;29.68;63109.78;5051310;28;20285;-79
2022/03/25 01:40:34;;;;;;;7.25;5.57;;;;;;;10.70;29.80;63103.59;5054618;28;20218;-79
2022/03/25 01:43:01;;;;;;;8.27;5.72;;;;;;;10.61;29.75;63094.25;5049369;28;20210;-78
2022/03/25 01:45:31;;;;;;;10.95;5.68;;;;;;;10.62;29.83;63093.28;5048757;28;20200;-78
2022/03/25 01:47:59;;;;;;;8.52;5.57;;;;;;;10.54;29.87;63081.94;5048836;28;20222;-79
2022/03/25 01:50:27;;;;;;;9.00;5.93;;;;;;;10.61;29.76;63094.78;5047521;28;20217;-79
2022/03/25 01:52:55;;;;;;;5.40;4.90;;;;;;;10.58;29.67;63091.66;5048233;28;20236;-79
2022/03/25 01:55:26;;;;;;;7.05;5.78;;;;;;;10.62;29.52;63095.28;5047927;28;20198;-80
2022/03/25 01:57:57;;;;;;;6.18;5.00;;;;;;;10.80;29.16;63116.47;5049287;28;20301;-81
2022/03/25 02:00:27;;;;;;;9.52;5.63;;;;;;;10.80;29.09;63111.91;5049342;28;20194;-78
2022/03/25 02:02:55;;;;;;;11.05;5.60;;;;;;;10.84;29.22;63118.59;5046466;28;20226;-81
2022/03/25 02:05:22;;;;;;;9.88;4.63;;;;;;;10.76;29.41;63110.31;5044389;28;20384;-80
2022/03/25 02:07:50;;;;;;;7.53;5.05;;;;;;;10.75;29.20;63106.22;5047659;28;20218;-79
2022/03/25 02:10:18;;;;;;;6.82;5.20;;;;;;;10.66;29.11;63099.44;5051205;28;20209;-80
2022/03/25 02:12:45;;;;;;;10.68;5.38;;;;;;;10.78;29.27;63109.84;5033177;28;20219;-79
2022/03/25 02:15:14;;;;;;;7.00;5.97;;;;;;;10.63;29.12;63093.78;5032383;28;20206;-79
2022/03/25 02:17:42;;;;;;;12.73;6.43;;;;;;;10.65;29.17;63096.38;5031731;28;20244;-79
2022/03/25 02:20:10;;;;;;;10.32;6.20;;;;;;;10.72;29.18;63103.63;5041084;28;20198;-79
2022/03/25 02:22:39;;;;;;;6.82;5.45;;;;;;;10.66;29.11;63099.44;5048016;28;20218;-80
2022/03/25 02:25:10;;;;;;;16.05;5.78;;;;;;;10.63;29.10;63091.75;5039379;28;20198;-79
2022/03/25 02:27:38;;;;;;;8.48;5.97;;;;;;;10.67;29.15;63100.47;5036023;28;20527;-79
2022/03/25 02:30:07;;;;;;;7.18;5.53;;;;;;;10.62;29.12;63095.81;5049851;28;20252;-78
2022/03/25 02:32:35;;;;;;;11.25;5.80;;;;;;;10.63;29.20;63094.28;5042861;28;20296;-79
2022/03/25 02:35:03;;;;;;;8.60;5.20;;;;;;;10.66;29.06;63099.44;5050297;28;20213;-80
2022/03/25 02:37:30;;;;;;;6.78;5.97;;;;;;;10.60;29.31;63090.66;5053519;28;20245;-79
2022/03/25 02:39:58;;;;;;;14.40;5.90;;;;;;;10.59;29.11;63089.66;5055264;28;20202;-79
2022/03/25 02:42:25;;;;;;;10.32;5.38;;;;;;;10.63;29.01;63093.78;5036339;28;20289;-78
2022/03/25 02:44:52;;;;;;;6.25;5.65;;;;;;;10.67;28.99;63103.00;5029641;28;20205;-80
2022/03/25 02:47:19;;;;;;;14.40;5.85;;;;;;;10.63;29.31;63096.84;5029279;28;20214;-78
2022/03/25 02:49:46;;;;;;;5.93;5.00;;;;;;;10.58;29.23;63091.16;5034956;28;20198;-79
2022/03/25 02:52:13;;;;;;;7.75;5.65;;;;;;;10.56;29.39;63086.53;5048559;28;20221;-80
2022/03/25 02:54:40;;;;;;;13.50;5.82;;;;;;;10.52;29.36;63082.91;5049185;28;20273;-78
2022/03/25 02:57:09;;;;;;;7.65;5.63;;;;;;;10.53;29.49;63086.00;5048684;28;20218;-79
2022/03/25 02:59:36;;;;;;;8.85;5.60;;;;;;;10.45;29.81;63078.75;5051752;28;20241;-79
2022/03/25 03:02:03;;;;;;;8.73;5.85;;;;;;;10.36;29.73;63069.44;5053660;28;20224;-78
2022/03/25 03:04:31;;;;;;;7.72;6.55;;;;;;;10.32;29.74;63062.22;5052102;28;20434;-79
2022/03/25 03:06:57;;;;;;;6.45;5.82;;;;;;;10.33;29.81;63065.81;5050153;28;20221;-79
2022/03/25 03:09:24;;;;;;;9.13;5.65;;;;;;;10.27;29.59;63055.00;5030117;28;20257;-79
2022/03/25 03:11:51;;;;;;;9.80;6.25;;;;;;;10.40;29.37;63071.03;5027896;28;20448;-79
2022/03/25 03:14:20;;;;;;;12.52;6.30;;;;;;;10.43;29.73;63076.66;5040707;28;20202;-81
2022/03/25 03:16:48;;;;;;;11.95;5.82;;;;;;;10.41;29.48;63074.59;5050404;28;20221;-81
2022/03/25 03:19:15;;;;;;;6.47;5.20;;;;;;;10.38;29.51;63068.94;5048529;28;20234;-79
2022/03/25 03:21:42;;;;;;;8.25;6.68;;;;;;;10.36;29.77;63068.91;5031276;28;20202;-80
2022/03/25 03:24:08;;;;;;;8.70;5.90;;;;;;;10.44;29.50;63074.63;5030823;28;20204;-81
2022/03/25 03:26:35;;;;;;;7.38;6.13;;;;;;;10.36;29.55;63069.44;5043216;28;20213;-79
2022/03/25 03:29:04;;;;;;;10.30;5.80;;;;;;;10.32;29.82;63062.72;5050224;28;20206;-79
2022/03/25 03:31:32;;;;;;;8.05;5.43;;;;;;;10.16;30.24;63048.72;5048911;28;20216;-79
2022/03/25 03:33:59;;;;;;;13.88;6.47;;;;;;;10.20;30.29;63047.78;5050430;28;20198;-81
2022/03/25 03:36:26;;;;;;;9.25;5.32;;;;;;;9.89;30.75;63020.78;5049789;28;20198;-80
2022/03/25 03:38:53;;;;;;;8.38;5.78;;;;;;;9.86;31.13;63015.13;5050661;28;20236;-80
2022/03/25 03:41:20;;;;;;;7.63;6.80;;;;;;;9.67;31.34;62997.50;5032175;28;20209;-79
2022/03/25 03:43:47;;;;;;;9.82;7.03;;;;;;;9.79;30.95;63009.91;5031108;28;20224;-79
2022/03/25 03:46:14;;;;;;;7.10;6.03;;;;;;;9.70;31.17;62998.06;5030580;28;20242;-80
2022/03/25 03:48:42;;;;;;;11.43;5.63;;;;;;;9.54;31.49;62987.13;5037516;28;20538;-79
2022/03/25 03:51:09;;;;;;;10.38;5.75;;;;;;;9.35;32.07;62962.41;5052312;28;20198;-81
2022/03/25 03:53:36;;;;;;;10.82;5.80;;;;;;;9.36;31.88;62960.88;5053786;28;20258;-80
2022/03/25 03:56:03;;;;;;;12.02;6.15;;;;;;;9.34;31.81;62958.81;5052264;28;20204;-79
2022/03/25 03:58:30;;;;;;;6.75;5.13;;;;;;;9.34;31.58;62961.88;5050317;28;20234;-79
2022/03/25 04:00:57;;;;;;;13.00;6.22;;;;;;;9.35;31.99;62960.34;5051044;28;20194;-79
2022/03/25 04:03:24;;;;;;;10.18;6.03;;;;;;;9.12;32.33;62941.66;5050203;28;20229;-81
2022/03/25 04:05:52;;;;;;;11.25;5.57;;;;;;;9.21;32.04;62947.91;5051544;28;20218;-80
2022/03/25 04:08:19;;;;;;;7.88;5.78;;;;;;;9.29;31.74;62956.69;5049930;28;20218;-80
2022/03/25 04:10:46;;;;;;;7.30;5.70;;;;;;;9.28;31.84;62952.63;5050440;28;20204;-80
2022/03/25 04:13:13;;;;;;;14.80;6.07;;;;;;;9.46;31.31;62976.28;5050569;28;20644;-81
2022/03/25 04:15:39;;;;;;;8.13;5.60;;;;;;;9.57;31.28;62985.13;5050386;28;20197;-80
2022/03/25 04:18:07;;;;;;;12.48;6.47;;;;;;;9.70;31.14;62998.06;5049013;28;20229;-79
2022/03/25 04:20:34;;;;;;;13.25;6.88;;;;;;;9.70;31.27;62998.06;5047899;28;20366;-80
2022/03/25 04:23:02;;;;;;;9.63;7.47;;;;;;;9.69;31.05;62994.47;5047055;28;20429;-78
2022/03/25 04:25:29;;;;;;;9.40;6.63;;;;;;;9.66;31.26;62994.44;5045604;28;20206;-80
2022/03/25 04:27:58;;;;;;;7.65;5.72;;;;;;;9.69;31.22;63005.19;5027650;28;20234;-79
2022/03/25 04:30:26;;;;;;;8.18;6.28;;;;;;;9.72;30.99;63002.66;5026939;28;20201;-79
2022/03/25 04:32:54;;;;;;;9.23;5.93;;;;;;;9.76;30.66;63004.78;5029805;28;20219;-80
2022/03/25 04:35:21;;;;;;;7.25;5.82;;;;;;;9.83;30.93;63014.06;5049185;28;20202;-79
2022/03/25 04:37:48;;;;;;;10.43;6.13;;;;;;;9.81;30.98;63012.50;5053361;28;20407;-80
2022/03/25 04:40:18;;;;;;;11.57;6.65;;;;;;;9.85;30.86;63013.56;5052037;28;20213;-80
2022/03/25 04:42:45;;;;;;;8.25;6.03;;;;;;;9.89;31.02;63018.22;5049702;28;20233;-80
2022/03/25 04:45:13;;;;;;;9.23;6.85;;;;;;;9.82;31.23;63013.53;5051130;28;20201;-79
2022/03/25 04:47:40;;;;;;;8.77;6.45;;;;;;;9.83;31.08;63012.03;5049741;28;20218;-79
2022/03/25 04:50:07;;;;;;;10.35;6.30;;;;;;;9.79;31.13;63010.44;5048936;28;20202;-80
2022/03/25 04:52:34;;;;;;;9.93;6.88;;;;;;;9.89;30.77;63023.31;5048841;28;20276;-80
2022/03/25 04:55:01;;;;;;;15.95;7.00;;;;;;;10.08;30.52;63037.91;5049315;28;20246;-79
2022/03/25 04:57:30;;;;;;;10.88;6.85;;;;;;;10.11;30.69;63043.53;5049948;28;20244;-79
2022/03/25 04:59:57;;;;;;;9.75;5.97;;;;;;;10.13;30.42;63040.03;5050707;28;20233;-81
2022/03/25 05:02:23;;;;;;;8.88;6.03;;;;;;;10.24;30.37;63057.00;5049807;28;20218;-79
2022/03/25 05:04:55;;;;;;;8.75;6.10;;;;;;;10.33;30.48;63063.25;5052272;28;20221;-79
2022/03/25 05:07:22;;;;;;;13.15;6.18;;;;;;;10.32;30.20;63064.75;5048768;28;20228;-80
2022/03/25 05:09:49;;;;;;;12.50;6.63;;;;;;;10.38;29.89;63068.44;5048683;28;20798;-79
2022/03/25 05:12:16;;;;;;;10.32;6.65;;;;;;;10.41;29.91;63074.06;5055277;28;20218;-77
2022/03/25 05:14:45;;;;;;;5.70;5.25;;;;;;;10.51;29.98;63086.47;5056150;28;20261;-80
2022/03/25 05:17:12;;;;;;;10.85;6.68;;;;;;;10.44;30.65;63075.16;5051900;28;20257;-81
2022/03/25 05:19:38;;;;;;;8.27;5.82;;;;;;;10.46;30.26;63079.78;5051251;28;20285;-79
2022/03/25 05:22:05;;;;;;;10.98;6.32;;;;;;;10.54;30.01;63089.56;5052707;28;20238;-79
2022/03/25 05:24:32;;;;;;;11.93;6.55;;;;;;;10.67;29.83;63095.91;5052395;28;20186;-80
2022/03/25 05:26:59;;;;;;;8.27;6.60;;;;;;;10.71;29.88;63100.03;5039440;28;20265;-80
2022/03/25 05:29:27;;;;;;;6.10;5.28;;;;;;;10.88;29.36;63122.22;5030341;28;20207;-80
2022/03/25 05:31:56;;;;;;;11.13;7.05;;;;;;;10.96;29.36;63125.41;5029632;28;20218;-81
2022/03/25 05:34:23;;;;;;;10.57;6.28;;;;;;;10.92;29.00;63126.34;5038567;28;20252;-79
2022/03/25 05:36:50;;;;;;;8.43;6.03;;;;;;;11.00;29.35;63129.53;5050191;28;20264;-80
2022/03/25 05:39:17;;;;;;;9.63;6.90;;;;;;;11.07;28.89;63142.41;5050349;28;20254;-81
2022/03/25 05:41:44;;;;;;;12.65;7.10;;;;;;;11.15;29.16;63145.06;5047942;28;20198;-80
2022/03/25 05:44:11;;;;;;;10.80;7.05;;;;;;;11.17;28.62;63149.69;5034744;28;20562;-80
2022/03/25 05:46:38;;;;;;;8.73;6.05;;;;;;;11.07;29.30;63141.88;5048162;28;20194;-77
2022/03/25 05:49:07;;;;;;;10.73;7.45;;;;;;;11.06;28.94;63138.31;5047126;28;20198;-78
2022/03/25 05:51:34;;;;;;;9.60;6.55;;;;;;;11.22;29.14;63152.31;5046932;28;20206;-78
2022/03/25 05:54:01;;;;;;;13.02;6.50;;;;;;;11.26;28.72;63159.00;5047957;28;20265;-77
2022/03/25 05:56:31;;;;;;;13.27;6.85;;;;;;;11.18;28.68;63148.69;5049233;28;20201;-77
2022/03/25 05:58:59;;;;;;;10.38;7.32;;;;;;;11.25;28.48;63161.03;5047474;28;20231;-78
2022/03/25 06:01:26;;;;;;;13.77;6.85;;;;;;;11.30;28.68;63165.72;5050390;28;20204;-79
2022/03/25 06:03:53;;;;;;;10.02;7.85;;;;;;;11.41;28.09;63172.50;5050289;28;20229;-78
2022/03/25 06:06:22;;;;;;;13.02;7.97;;;;;;;11.58;28.23;63192.66;5051339;28;20269;-79
2022/03/25 06:08:49;;;;;;;14.13;7.22;;;;;;;11.66;27.61;63200.47;5047210;28;20440;-79
2022/03/25 06:11:16;;;;;;;22.05;7.93;;;;;;;11.74;27.46;63210.78;5048726;28;20248;-80
2022/03/25 06:13:43;;;;;;;11.38;7.20;;;;;;;11.67;27.62;63198.94;5050330;28;20529;-79
2022/03/25 06:16:10;;;;;;;11.02;7.55;;;;;;;11.72;27.34;63206.16;5049913;28;20256;-79
2022/03/25 06:18:36;;;;;;;13.88;7.43;;;;;;;11.82;28.14;63222.13;5049988;28;20244;-80
2022/03/25 06:21:05;;;;;;;18.77;8.57;;;;;;;11.97;27.97;63232.59;5050115;28;20196;-80
2022/03/25 06:23:33;;;;;;;7.63;6.72;;;;;;;12.07;27.59;63242.94;5052529;28;20218;-79
2022/03/25 06:26:00;;;;;;;12.57;7.60;;;;;;;12.05;27.19;63242.91;5050379;28;20487;-80
2022/03/25 06:28:27;;;;;;;11.20;8.07;;;;;;;12.11;27.44;63246.56;5049408;28;20237;-78
2022/03/25 06:30:54;;;;;;;13.00;8.80;;;;;;;12.20;27.35;63258.47;5050406;28;20205;-79
2022/03/25 06:33:21;;;;;;;17.25;8.20;;;;;;;12.29;27.22;63268.31;5049339;28;20225;-77
2022/03/25 06:35:48;;;;;;;14.88;9.15;;;;;;;12.38;27.25;63274.56;5049019;28;20502;-80
2022/03/25 06:38:15;;;;;;;16.70;9.18;;;;;;;12.37;27.53;63276.59;5051315;28;20213;-79
2022/03/25 06:40:44;;;;;;;19.08;10.25;;;;;;;12.12;27.35;63250.16;5047766;28;20225;-79
2022/03/25 06:43:11;;;;;;;14.75;9.65;;;;;;;12.20;27.66;63258.97;5048919;28;20271;-79
2022/03/25 06:45:38;;;;;;;17.73;9.40;;;;;;;12.26;27.38;63262.66;5050349;28;20202;-78
2022/03/25 06:48:05;;;;;;;18.60;10.43;;;;;;;12.43;27.74;63279.75;5050968;28;20292;-80
2022/03/25 06:50:33;;;;;;;17.90;10.07;;;;;;;12.44;27.18;63275.69;5050483;28;20198;-79
2022/03/25 06:53:02;;;;;;;17.00;9.50;;;;;;;12.50;27.20;63292.63;5047497;28;20226;-78
2022/03/25 06:55:29;;;;;;;14.95;10.02;;;;;;;12.46;27.66;63285.41;5045515;28;20259;-80
2022/03/25 06:57:58;;;;;;;18.63;9.73;;;;;;;12.26;27.74;63265.19;5045260;28;20248;-78
2022/03/25 07:00:25;;;;;;;20.13;10.27;;;;;;;12.34;27.74;63276.03;5046364;28;20268;-79
2022/03/25 07:02:53;;;;;;;20.85;10.68;;;;;;;12.34;28.10;63276.03;5045804;28;20226;-77
2022/03/25 07:05:21;;;;;;;15.38;11.13;;;;;;;12.47;27.79;63283.91;5044160;28;20212;-79
2022/03/25 07:07:49;;;;;;;18.67;10.85;;;;;;;12.51;27.71;63290.59;5046183;28;20245;-80
2022/03/25 07:10:17;;;;;;;12.15;9.45;;;;;;;12.46;27.86;63283.38;5052431;28;20198;-82
2022/03/25 07:12:46;;;;;;;20.80;10.93;;;;;;;12.53;27.92;63290.63;5049116;28;20210;-79
2022/03/25 07:15:14;;;;;;;16.83;10.25;;;;;;;12.51;28.24;63288.56;5044610;28;20508;-81
2022/03/25 07:17:43;;;;;;;19.23;10.10;;;;;;;12.64;27.86;63302.03;5047153;28;20229;-79
2022/03/25 07:20:14;;;;;;;15.15;10.45;;;;;;;12.74;28.05;63317.53;5037857;28;20229;-79
2022/03/25 07:22:41;;;;;;;12.73;8.85;;;;;;;12.84;27.85;63324.31;5044526;28;20289;-79
2022/03/25 07:25:08;;;;;;;11.52;8.70;;;;;;;12.88;27.95;63325.88;5045409;28;20209;-78
2022/03/25 07:27:35;;;;;;;23.48;9.25;;;;;;;12.62;28.29;63299.97;5045877;28;20343;-79
2022/03/25 07:30:03;;;;;;;11.68;8.43;;;;;;;12.73;28.13;63308.31;5044731;28;20439;-78
2022/03/25 07:32:32;;;;;;;10.35;8.60;;;;;;;12.83;28.07;63321.22;5045370;28;20214;-78
2022/03/25 07:34:59;;;;;;;14.50;8.77;;;;;;;12.96;28.20;63337.25;5045625;28;20301;-79
2022/03/25 07:37:26;;;;;;;13.35;9.23;;;;;;;12.75;27.81;63315.50;5042788;28;20505;-77
2022/03/25 07:39:53;;;;;;;17.75;9.02;;;;;;;12.93;28.10;63331.59;5029413;28;20222;-78
2022/03/25 07:42:20;;;;;;;16.02;9.35;;;;;;;13.02;28.02;63340.94;5046743;28;20222;-78
2022/03/25 07:44:48;;;;;;;16.25;9.43;;;;;;;12.84;28.49;63324.81;5050694;28;20273;-80
2022/03/25 07:47:15;;;;;;;18.70;10.75;;;;;;;13.02;28.22;63340.94;5041880;28;20259;-79
2022/03/25 07:49:44;;;;;;;13.70;8.63;;;;;;;12.76;28.49;63316.53;5040148;28;20209;-79
2022/03/25 07:52:12;;;;;;;14.70;8.55;;;;;;;12.93;28.57;63333.63;5045329;28;20441;-77
2022/03/25 07:54:39;;;;;;;23.73;9.77;;;;;;;12.88;28.16;63323.31;5040462;28;20202;-79
2022/03/25 07:57:06;;;;;;;16.77;10.10;;;;;;;12.88;27.76;63328.44;5044613;28;20222;-79
2022/03/25 07:59:34;;;;;;;19.92;8.50;;;;;;;12.95;27.78;63335.69;5045376;28;20229;-76
2022/03/25 08:02:01;;;;;;;18.58;8.63;;;;;;;12.99;27.68;63337.31;5044325;28;20226;-78
2022/03/25 08:04:28;;;;;;;15.52;9.35;;;;;;;12.95;28.00;63338.25;5044912;28;20400;-79
2022/03/25 08:06:56;;;;;;;12.45;7.18;;;;;;;12.97;27.99;63335.75;5036436;28;20233;-78
2022/03/25 08:09:23;;;;;;;19.02;9.60;;;;;;;13.16;28.11;63363.16;5042216;28;20198;-79
2022/03/25 08:11:50;;;;;;;25.05;9.63;;;;;;;13.31;27.97;63373.06;5046496;28;20236;-80
2022/03/25 08:14:18;;;;;;;14.75;9.50;;;;;;;13.39;27.89;63381.38;5045385;28;20515;-79
2022/03/25 08:16:46;;;;;;;13.25;8.80;;;;;;;13.39;28.01;63383.94;5034419;28;20205;-79
2022/03/25 08:19:13;;;;;;;15.25;8.27;;;;;;;13.58;27.91;63401.09;5034803;28;20242;-78
2022/03/25 08:21:40;;;;;;;18.92;8.82;;;;;;;13.64;27.61;63409.88;5035685;28;20198;-78
2022/03/25 08:29:38;;;;;;;23.55;9.75;;;;;;;13.59;27.53;63399.56;5039992;28;20241;-79
2022/03/25 08:32:06;;;;;;;16.58;7.82;;;;;;;13.61;27.43;63401.66;5035355;28;20245;-79
2022/03/25 08:34:33;;;;;;;13.13;7.85;;;;;;;13.54;27.47;63394.38;5035739;28;20237;-79
2022/03/25 08:37:00;;;;;;;17.25;9.57;;;;;;;13.55;27.37;63393.38;5038594;28;20218;-79
2022/03/25 08:39:29;;;;;;;17.85;9.10;;;;;;;13.48;27.43;63388.16;5032991;28;20281;-78
2022/03/25 08:41:56;;;;;;;17.85;8.48;;;;;;;13.23;27.67;63365.28;5037136;28;20214;-79
2022/03/25 08:44:23;;;;;;;11.00;7.85;;;;;;;13.37;27.41;63379.31;5036293;28;20485;-79
2022/03/25 08:46:49;;;;;;;11.25;8.52;;;;;;;13.35;27.55;63375.19;5037254;28;20245;-78
2022/03/25 08:49:16;;;;;;;15.27;8.02;;;;;;;13.34;27.51;63379.25;5041211;28;20300;-80
2022/03/25 08:51:43;;;;;;;10.43;8.23;;;;;;;13.49;27.52;63389.72;5039920;28;20376;-79
2022/03/25 08:54:10;;;;;;;12.93;7.70;;;;;;;13.56;27.30;63399.00;5032517;28;20199;-78
2022/03/25 08:56:39;;;;;;;17.58;8.43;;;;;;;13.50;27.46;63393.31;5037756;28;20242;-78
2022/03/25 08:59:08;;;;;;;13.07;8.38;;;;;;;13.59;27.36;63402.13;5035177;28;20240;-78
2022/03/25 09:01:35;;;;;;;13.73;8.52;;;;;;;13.65;27.16;63408.88;5033399;28;20263;-77
2022/03/25 09:04:02;;;;;;;14.82;7.20;;;;;;;13.45;27.40;63388.13;5040490;28;20431;-79
2022/03/25 09:06:29;;;;;;;16.20;8.18;;;;;;;13.76;27.00;63422.31;5035754;28;20270;-77
2022/03/25 09:08:56;;;;;;;12.63;7.32;;;;;;;13.84;27.23;63428.59;5039465;28;20233;-76
2022/03/25 09:11:22;;;;;;;14.13;7.93;;;;;;;13.99;26.97;63443.13;5037801;28;20233;-79
2022/03/25 09:13:51;;;;;;;10.90;7.35;;;;;;;14.16;27.02;63458.75;5042603;28;21071;-78
2022/03/25 09:16:19;;;;;;;13.27;7.40;;;;;;;14.27;26.60;63472.72;5038173;28;20236;-77
2022/03/25 09:18:46;;;;;;;15.48;8.23;;;;;;;14.17;26.15;63459.75;5036734;28;20518;-78
2022/03/25 09:21:13;;;;;;;14.20;7.40;;;;;;;14.11;26.54;63453.53;5035751;28;20230;-79
2022/03/25 09:23:39;;;;;;;11.35;7.57;;;;;;;14.16;26.08;63456.19;5041855;28;20232;-78
2022/03/25 09:26:06;;;;;;;12.65;7.35;;;;;;;14.15;26.73;63460.25;5045397;28;20229;-78
2022/03/25 09:28:33;;;;;;;15.25;8.82;;;;;;;14.20;26.39;63464.94;5046861;28;20248;-78
2022/03/25 09:31:02;;;;;;;10.02;6.85;;;;;;;14.22;26.68;63467.50;5039754;28;20213;-79
2022/03/25 09:33:29;;;;;;;13.98;7.28;;;;;;;14.25;25.96;63470.13;5047586;28;20241;-77
2022/03/25 09:35:57;;;;;;;22.42;7.80;;;;;;;14.43;26.25;63491.91;5047322;28;20198;-79
2022/03/25 09:38:24;;;;;;;16.73;7.35;;;;;;;14.52;25.92;63496.13;5037543;28;20223;-81
2022/03/25 09:40:52;;;;;;;10.32;7.13;;;;;;;14.43;25.81;63484.22;5027127;28;20226;-78
2022/03/25 09:43:20;;;;;;;16.05;7.63;;;;;;;14.52;25.27;63498.19;5026582;28;20608;-79
2022/03/25 09:45:47;;;;;;;13.32;7.03;;;;;;;14.40;25.07;63483.69;5039297;28;20202;-79
2022/03/25 09:48:16;;;;;;;9.43;6.55;;;;;;;14.31;25.26;63474.31;5046991;28;20241;-80
2022/03/25 09:50:42;;;;;;;9.50;6.40;;;;;;;14.42;24.71;63485.22;5047824;28;20392;-79
2022/03/25 09:53:09;;;;;;;10.82;6.15;;;;;;;14.38;25.01;63481.59;5047609;28;20214;-78
2022/03/25 09:55:41;;;;;;;11.27;7.03;;;;;;;14.49;25.04;63495.59;5046169;28;20446;-79
2022/03/25 09:58:08;;;;;;;13.38;6.43;;;;;;;14.53;24.42;63497.16;5046844;28;20206;-79
2022/03/25 10:00:35;;;;;;;7.07;5.88;;;;;;;14.56;24.61;63504.91;5046389;28;20229;-79
2022/03/25 10:03:02;;;;;;;10.70;5.90;;;;;;;14.65;24.46;63512.19;5046018;28;20222;-79
2022/03/25 10:05:31;;;;;;;8.38;6.20;;;;;;;14.58;23.88;63504.41;5046108;28;20198;-78
2022/03/25 10:07:59;;;;;;;12.30;7.00;;;;;;;14.66;24.15;63510.16;5045586;28;20281;-79
2022/03/25 10:10:27;;;;;;;12.93;6.13;;;;;;;14.70;23.82;63517.38;5045741;28;20226;-78
2022/03/25 10:13:00;;;;;;;9.30;6.30;;;;;;;14.81;23.66;63531.38;5044869;28;20225;-78
2022/03/25 10:15:29;;;;;;;12.52;5.95;;;;;;;14.90;23.43;63535.09;5053151;28;20186;-79
2022/03/25 10:17:58;;;;;;;9.05;5.95;;;;;;;14.82;23.52;63529.34;5047513;28;20268;-79
2022/03/25 10:20:27;;;;;;;9.43;6.03;;;;;;;14.62;23.22;63509.09;5035385;28;20265;-80
2022/03/25 10:23:04;;;;;;;7.82;5.43;;;;;;;14.77;22.53;63521.59;5037252;28;20213;-78
2022/03/25 10:25:44;;;;;;;7.82;5.82;;;;;;;14.78;23.31;63525.19;5047387;28;20185;-79
2022/03/25 10:28:29;;;;;;;7.03;5.63;;;;;;;14.96;22.61;63541.84;5044169;28;20233;-78
2022/03/25 10:30:58;;;;;;;12.10;5.28;;;;;;;15.04;22.38;63557.84;5046416;28;20197;-78
2022/03/25 10:33:29;;;;;;;9.70;5.45;;;;;;;15.04;22.18;63552.72;5043643;28;20222;-79
2022/03/25 10:35:58;;;;;;;7.43;5.70;;;;;;;15.04;22.19;63555.28;5048319;28;20214;-79
2022/03/25 10:38:28;;;;;;;10.85;5.22;;;;;;;15.23;22.80;63571.94;5044679;28;20280;-78
2022/03/25 10:40:57;;;;;;;7.78;4.45;;;;;;;15.31;22.20;63577.69;5045782;28;21007;-79
2022/03/25 10:43:25;;;;;;;8.50;5.35;;;;;;;15.33;21.85;63581.81;5028247;28;20218;-78
2022/03/25 10:45:52;;;;;;;7.80;5.43;;;;;;;15.08;21.85;63553.78;5029799;28;20198;-78
2022/03/25 10:48:21;;;;;;;6.88;4.53;;;;;;;15.12;22.33;63563.06;5048280;28;20275;-79
2022/03/25 10:50:59;;;;;;;9.77;5.78;;;;;;;15.35;22.54;63581.84;5047943;28;20205;-79
2022/03/25 10:53:30;;;;;;;8.80;5.38;;;;;;;15.37;21.88;63583.94;5048853;28;20221;-79
2022/03/25 10:55:59;;;;;;;6.38;5.45;;;;;;;15.33;21.83;63579.25;5046269;28;20403;-79
2022/03/25 10:58:27;;;;;;;15.30;5.47;;;;;;;15.01;22.48;63551.66;5046605;28;20221;-78
2022/03/25 11:00:54;;;;;;;7.32;5.45;;;;;;;15.19;22.87;63565.22;5046332;28;20305;-79
2022/03/25 11:03:22;;;;;;;7.43;5.05;;;;;;;15.21;22.66;63569.88;5045942;28;20542;-79
2022/03/25 11:05:50;;;;;;;10.10;5.32;;;;;;;15.38;21.88;63584.44;5046318;28;20281;-79
2022/03/25 11:08:17;;;;;;;7.22;5.45;;;;;;;15.29;22.15;63577.66;5048632;28;20233;-80
2022/03/25 11:10:46;;;;;;;7.88;4.93;;;;;;;15.35;22.10;63586.47;5044964;28;20194;-78
2022/03/25 11:13:13;;;;;;;7.35;5.13;;;;;;;15.56;21.92;63605.75;5039640;28;20273;-78
2022/03/25 11:15:40;;;;;;;7.82;4.90;;;;;;;15.60;21.95;63609.91;5029696;28;20201;-79
2022/03/25 11:18:08;;;;;;;5.88;4.60;;;;;;;15.52;21.78;63599.00;5040263;28;20221;-78
2022/03/25 11:20:35;;;;;;;10.10;5.57;;;;;;;15.64;21.52;63611.50;5047702;28;20504;-79
2022/03/25 11:23:10;;;;;;;7.53;5.00;;;;;;;15.65;21.70;63612.53;5048737;28;20288;-78
2022/03/25 11:25:40;;;;;;;15.73;5.25;;;;;;;15.61;21.19;63614.03;5047103;28;20559;-79
2022/03/25 11:28:12;;;;;;;5.18;4.65;;;;;;;15.57;21.73;63604.22;5028339;28;20226;-79
2022/03/25 11:30:40;;;;;;;11.57;4.90;;;;;;;15.46;21.29;63595.84;5042602;28;20271;-79
2022/03/25 11:33:08;;;;;;;5.45;4.55;;;;;;;15.57;21.51;63606.78;5047775;28;20240;-78
2022/03/25 11:35:36;;;;;;;5.57;4.43;;;;;;;15.58;21.60;63608.34;5028363;28;20258;-79
2022/03/25 11:38:18;;;;;;;6.43;4.97;;;;;;;15.64;21.37;63611.50;5028525;28;20242;-79